Airfield :







YOU CAN JOIN US ON...

 
LOGIN :

Register | Disclaimer

   EN    FR    IT 

 









Legend :    VFR   Marginal VFR   IFR   Intensive IFR   Very Intensive IFR
Visi :
Ceiling :
>= 8 km
>= 3000ft
5 to 8 km
1000 to 3000 ft
1500m to 5 km
500 to 1000 ft
800 to 1500m
200 to 500 ft
< 800m
< 200 ft
Symbols :   Thunderstorms  Fog  Heavy snow  Heavy precipitations  Wind > 20 kt







- Airport Elevation : 403 ft
- IATA code : YKG


CYAS - Kangirsuk

CURRENT METAR :
  • 191800Z 21006G15KT 190V250 8SM -RA OVC004 12/12 A2927 RMK ST8 SLP919 DENSITY ALT 1000FT

EXPIRED METARs :
  • 191700Z 20007KT 190V250 12SM -RA SCT006 OVC015 12/11 A2931 RMK ST4ST4 SLP933 DENSITY ALT 900FT
  • 191600Z 18006KT 12SM -RA OVC015 13/09 A2935 RMK ST8 SLP945 DENSITY ALT 1000FT

TAF AMD TAF CYAS
Valid from the 19 at 18:00 until the 19 at 21:00 UTC


191813Z 1918/1921 21010KT P6SM SCT004 OVC015
TEMPO 1918/1921 4SM -RA BR OVC004
BECMG 1919/1921 25015G25KT RMK NXT FCST WILL BE ISSUED AT 201345Z
No reported NOTAMs for that airfield.



MET'MAP, your aeronautical weather chart ! - Copyright ORBIFLY December 2007 - Disclaimer

ORBIFLY MET'MAP TEAM :

Programming & Development : Alexandra Zaïnal
Concept & Development : Baudouin d'Aumeries
Co-Development & Prog : Marc-Olivier Méhu
Technical & hardware support : Manuel Goepfert

Contact : metmap@orbifly.com




SOURCES & CREDITS :

   NOAA